Savage Better Way — WDF3773 — position and weather

sailwx.info

Track history (hours):
 
Tides and Currents Weather Stations Pressure Air Temp Water Temp Dewpoint Dewpoint Depression Visibility Wind Speed Wind Dir Waves Ship Positions

Savage Better Way

Owner: Savage Inland Marine, Gibson, LA. More information available from US FCC via Universal Licensing System and Coast Guard Vessel Documentation Center.

Last reported at 2017-Dec-11 16:26 UTC. Time now 2017-Dec-13 12:49 UTC.
Position N 29°44' W 095°14'.

Length 27 m; draft 3 m.

Type: Tug. MMSI: 367443840.

Date/timePositionNaut miles runAvg speedWind from/ knotsBaromVisibWave heightAir tempDewpointWater temp
2017-Dec-11 16:26N 29°44' W 095°14'0 0.0
2017-Dec-11 15:49N 29°44' W 095°14'0 0.0
2017-Dec-11 15:14N 29°44' W 095°14'0 0.0
2017-Dec-11 14:51N 29°44' W 095°14'0 0.0
2017-Dec-11 14:27N 29°44' W 095°14'0 0.0
2017-Dec-11 14:00N 29°44' W 095°14'0 0.0
2017-Dec-11 13:30N 29°44' W 095°14'0 0.0
2017-Dec-11 13:00N 29°44' W 095°14'0 0.0
2017-Dec-11 12:30N 29°44' W 095°14'0 0.0
2017-Dec-11 12:00N 29°44' W 095°14'0 0.0
2017-Dec-11 11:30N 29°44' W 095°14'0 0.0
2017-Dec-11 11:00N 29°44' W 095°14'0 0.0
2017-Dec-11 10:28N 29°44' W 095°14'0 0.0
2017-Dec-11 10:00N 29°44' W 095°14'0 0.0
2017-Dec-11 09:30N 29°44' W 095°14'0 0.0
2017-Dec-11 08:59N 29°44' W 095°14'0 0.0
2017-Dec-11 08:30N 29°44' W 095°14'0 0.0
2017-Dec-11 08:00N 29°44' W 095°14'0 0.0
2017-Dec-11 07:30N 29°44' W 095°14'0 0.0
2017-Dec-11 07:00N 29°44' W 095°14'0 0.0
2017-Dec-11 06:30N 29°44' W 095°14'0 0.0
2017-Dec-11 06:00N 29°44' W 095°14'0 0.0
2017-Dec-11 05:30N 29°44' W 095°14'0 0.0
2017-Dec-11 05:00N 29°44' W 095°14'0 0.1
2017-Dec-11 04:30N 29°44' W 095°14'0 0.0
2017-Dec-11 04:00N 29°44' W 095°14'0 0.0
2017-Dec-11 03:30N 29°44' W 095°14'0 0.0
2017-Dec-11 03:00N 29°44' W 095°14'0 0.0
2017-Dec-11 02:29N 29°44' W 095°14'0 0.0
2017-Dec-11 01:58N 29°44' W 095°14'0 0.0
2017-Dec-11 01:30N 29°44' W 095°14'0 0.0
2017-Dec-11 01:00N 29°44' W 095°14'0 0.0
2017-Dec-11 00:30N 29°44' W 095°14'3 6.5
2017-Dec-11 00:00N 29°45' W 095°10'4 7.3
2017-Dec-10 23:28N 29°45' W 095°06'2 0.2
2017-Dec-10 14:18N 29°47' W 095°05'0 0.0
2017-Dec-10 10:54N 29°47' W 095°05'0 0.0
2017-Dec-10 10:28N 29°47' W 095°05'0 0.0
2017-Dec-10 06:43N 29°47' W 095°05'0 0.0
2017-Dec-10 06:23N 29°47' W 095°05'0 0.0
2017-Dec-10 06:00N 29°47' W 095°05'0 0.0
2017-Dec-10 00:09N 29°47' W 095°05'1 1.9
2017-Dec-09 23:52N 29°47' W 095°04'2 6.1
2017-Dec-09 23:30N 29°45' W 095°06'4 7.8
2017-Dec-09 23:00N 29°45' W 095°10'3 6.6
2017-Dec-09 22:30N 29°44' W 095°14'0 0.0
2017-Dec-09 21:58N 29°44' W 095°14'0 0.0
2017-Dec-09 21:30N 29°44' W 095°14'0 0.2
2017-Dec-09 20:39N 29°43' W 095°13'0 0.1
2017-Dec-09 20:16N 29°43' W 095°13'1 2.4
2017-Dec-09 19:59N 29°44' W 095°13'3 5.4
2017-Dec-09 19:30N 29°45' W 095°10'2 4.6
2017-Dec-09 19:00N 29°44' W 095°07'3 5.8
2017-Dec-09 18:25N 29°46' W 095°05'1 1.0
2017-Dec-09 17:28N 29°47' W 095°06'0 0.1
2017-Dec-09 15:13N 29°47' W 095°06'0 0.0
2017-Dec-09 15:00N 29°47' W 095°06'0 0.0
2017-Dec-09 14:31N 29°47' W 095°06'0 0.0
2017-Dec-09 14:00N 29°47' W 095°06'1 1.5
2017-Dec-09 13:23N 29°47' W 095°05'1 2.3
2017-Dec-09 13:00N 29°47' W 095°06'0 0.1
2017-Dec-09 12:30N 29°47' W 095°06'1 2.3
2017-Dec-09 11:54N 29°47' W 095°04'1 1.4
2017-Dec-09 11:19N 29°47' W 095°05'1 2.8
2017-Dec-09 11:00N 29°46' W 095°05'2 4.5
2017-Dec-09 10:31N 29°44' W 095°03'0 0.2
2017-Dec-09 09:54N 29°44' W 095°03'0 0.1
2017-Dec-09 09:30N 29°44' W 095°03'0 0.0
2017-Dec-09 09:00N 29°44' W 095°03'0 0.0
2017-Dec-09 08:30N 29°44' W 095°03'0 0.0
2017-Dec-09 07:59N 29°44' W 095°03'0 0.0
2017-Dec-09 07:30N 29°44' W 095°03'0 0.0
2017-Dec-09 07:00N 29°44' W 095°03'0 0.0
2017-Dec-09 06:30N 29°44' W 095°03'0 0.0
2017-Dec-09 06:00N 29°44' W 095°03'0 0.0
2017-Dec-09 05:30N 29°44' W 095°03'0 0.0
2017-Dec-09 05:00N 29°44' W 095°03'0 0.0
2017-Dec-09 04:30N 29°44' W 095°03'0 0.0
2017-Dec-09 04:00N 29°44' W 095°03'0 0.0
2017-Dec-09 03:30N 29°44' W 095°03'0 0.0
2017-Dec-09 03:00N 29°44' W 095°03'0 0.0
2017-Dec-09 02:30N 29°44' W 095°03'0 0.0
2017-Dec-09 01:55N 29°44' W 095°03'0 0.0
2017-Dec-09 01:29N 29°44' W 095°03'0 0.0
2017-Dec-09 01:00N 29°44' W 095°03'0 0.0
2017-Dec-09 00:30N 29°44' W 095°03'0 0.0
2017-Dec-09 00:00N 29°44' W 095°03'0 0.0
2017-Dec-08 23:29N 29°44' W 095°03'0 0.0
2017-Dec-08 23:00N 29°44' W 095°03'0 0.0
2017-Dec-08 22:31N 29°44' W 095°03'0 0.0
2017-Dec-08 22:00N 29°44' W 095°03'0 0.0
2017-Dec-08 21:30N 29°44' W 095°03'0 0.0
2017-Dec-08 21:00N 29°44' W 095°03'0 0.0
2017-Dec-08 20:30N 29°44' W 095°03'0 0.0
2017-Dec-08 20:00N 29°44' W 095°03'0 0.0
2017-Dec-08 19:30N 29°44' W 095°03'0 0.0
2017-Dec-08 19:00N 29°44' W 095°03'0 0.0
2017-Dec-08 18:29N 29°44' W 095°03'0 0.0
2017-Dec-08 17:42N 29°44' W 095°03'0 0.0
2017-Dec-08 17:28N 29°44' W 095°03'0 0.0
2017-Dec-08 16:41N 29°44' W 095°03'0 0.0
2017-Dec-08 15:29N 29°44' W 095°03'0 0.0
2017-Dec-08 14:55N 29°44' W 095°03'0 0.0
2017-Dec-08 14:15N 29°44' W 095°03'0 0.0
2017-Dec-08 13:34N 29°44' W 095°03'0 0.0
2017-Dec-08 13:30N 29°44' W 095°03'0 0.0
2017-Dec-08 12:57N 29°44' W 095°03'0 0.0
2017-Dec-08 12:16N 29°44' W 095°03'0 0.0
2017-Dec-08 11:58N 29°44' W 095°03'0 0.0
2017-Dec-08 11:29N 29°44' W 095°03'0 0.0
2017-Dec-08 10:51N 29°44' W 095°03'0 0.0
2017-Dec-08 10:29N 29°44' W 095°03'0 0.0
2017-Dec-08 09:58N 29°44' W 095°03'0 0.0
2017-Dec-08 09:11N 29°44' W 095°03'0 0.0
2017-Dec-08 08:48N 29°44' W 095°03'0 0.0
2017-Dec-08 08:30N 29°44' W 095°03'0 0.0
2017-Dec-08 07:53N 29°44' W 095°03'0 0.0
2017-Dec-08 07:30N 29°44' W 095°03'0 0.0
2017-Dec-08 06:59N 29°44' W 095°03'0 0.0
2017-Dec-08 05:45N 29°44' W 095°03'0 0.0
2017-Dec-08 05:15N 29°44' W 095°03'0 0.0
2017-Dec-08 03:49N 29°44' W 095°03'0 0.0
2017-Dec-08 03:30N 29°44' W 095°03'0 0.0
2017-Dec-08 03:00N 29°44' W 095°03'0 0.0
2017-Dec-08 02:30N 29°44' W 095°03'0 0.0
2017-Dec-08 01:58N 29°44' W 095°03'0 0.0
2017-Dec-08 01:29N 29°44' W 095°03'0 0.0
2017-Dec-08 01:00N 29°44' W 095°03'0 0.0
2017-Dec-08 00:28N 29°44' W 095°03'0 0.0
2017-Dec-07 23:49N 29°44' W 095°03'0 0.0
2017-Dec-07 21:01N 29°44' W 095°03'0 0.1
2017-Dec-07 20:57N 29°44' W 095°03'0 0.0
2017-Dec-07 16:52N 29°44' W 095°03'0 0.0
2017-Dec-07 16:29N 29°44' W 095°03'0 0.0
2017-Dec-07 16:00N 29°44' W 095°03'0 0.0
2017-Dec-07 15:30N 29°44' W 095°03'0 0.0
2017-Dec-07 15:00N 29°44' W 095°03'0 0.0
2017-Dec-07 14:28N 29°44' W 095°03'0 0.0
2017-Dec-07 13:57N 29°44' W 095°03'0 0.0
2017-Dec-07 13:29N 29°44' W 095°03'0 0.0
2017-Dec-07 12:56N 29°44' W 095°03'0 0.0
2017-Dec-07 12:27N 29°44' W 095°03'0 0.0
2017-Dec-07 11:54N 29°44' W 095°03'0 0.0
2017-Dec-07 11:30N 29°44' W 095°03'0 0.0
2017-Dec-07 10:49N 29°44' W 095°03'0 0.0
2017-Dec-07 10:15N 29°44' W 095°03'0 0.0
2017-Dec-07 09:53N 29°44' W 095°03'0 0.0
2017-Dec-07 09:30N 29°44' W 095°03'0 0.0
2017-Dec-07 08:56N 29°44' W 095°03'0 0.6
2017-Dec-07 08:29N 29°44' W 095°03'0 0.0
2017-Dec-07 08:00N 29°44' W 095°03'0 0.0
2017-Dec-07 07:25N 29°44' W 095°03'0 0.0
2017-Dec-07 06:48N 29°44' W 095°03'0 0.0
2017-Dec-07 06:24N 29°44' W 095°03'0 0.0
2017-Dec-07 05:59N 29°44' W 095°03'0 0.1
2017-Dec-07 05:30N 29°44' W 095°03'0 0.1
2017-Dec-07 05:00N 29°44' W 095°03'0 0.0
2017-Dec-07 04:27N 29°44' W 095°03'0 0.0
2017-Dec-07 02:58N 29°44' W 095°03'0 0.0
2017-Dec-07 02:24N 29°44' W 095°03'0 0.0
2017-Dec-07 01:56N 29°44' W 095°03'0 0.0
2017-Dec-07 01:29N 29°44' W 095°03'0 0.0
2017-Dec-07 00:56N 29°44' W 095°03'0 0.0
2017-Dec-07 00:30N 29°44' W 095°03'0 0.0
2017-Dec-06 23:59N 29°44' W 095°03'0 0.0
2017-Dec-06 23:21N 29°44' W 095°03'0 0.0
2017-Dec-06 22:48N 29°44' W 095°03'0 0.0
2017-Dec-06 22:22N 29°44' W 095°03'0 0.0
2017-Dec-06 21:57N 29°44' W 095°03'0 0.0
2017-Dec-06 21:30N 29°44' W 095°03'0 0.0
2017-Dec-06 20:52N 29°44' W 095°03'  
2017-Dec-03 16:24N 29°47' W 095°04'1 1.2
2017-Dec-03 15:58N 29°47' W 095°05'1 2.3
2017-Dec-03 15:29N 29°46' W 095°05'1 1.0
2017-Dec-03 14:52N 29°46' W 095°05'1 0.2
2017-Dec-03 09:29N 29°47' W 095°05'0 0.0
2017-Dec-03 08:52N 29°47' W 095°05'0 0.0
2017-Dec-03 05:22N 29°47' W 095°05'0 0.0
2017-Dec-03 05:00N 29°47' W 095°05'0 0.0
2017-Dec-03 04:30N 29°47' W 095°05'0 0.0
2017-Dec-03 04:00N 29°47' W 095°05'0 0.0
2017-Dec-03 02:41N 29°47' W 095°05'0 0.0
2017-Dec-03 02:29N 29°47' W 095°05'0 0.0
2017-Dec-02 20:43N 29°47' W 095°05'1 3.3
2017-Dec-02 20:28N 29°47' W 095°04'1 1.3
2017-Dec-02 19:55N 29°47' W 095°04'2 4.0
2017-Dec-02 19:30N 29°45' W 095°04'3 5.3
2017-Dec-02 18:59N 29°44' W 095°01'2 4.7
2017-Dec-02 18:30N 29°42' W 094°60'3 5.2
2017-Dec-02 18:01N 29°40' W 094°58'3 5.1
2017-Dec-02 17:30N 29°37' W 094°57'3 5.2
2017-Dec-02 17:00N 29°35' W 094°56'3 5.0
2017-Dec-02 16:29N 29°33' W 094°54'2 4.9
2017-Dec-02 15:59N 29°31' W 094°53'  
Track history (hours):
 
Tides and Currents Weather Stations Pressure Air Temp Water Temp Dewpoint Dewpoint Depression Visibility Wind Speed Wind Dir Waves Ship Positions

Savage Better Way

Owner: Savage Inland Marine, Gibson, LA. More information available from US FCC via Universal Licensing System and Coast Guard Vessel Documentation Center.

Last reported at 2017-Dec-11 16:26 UTC. Time now 2017-Dec-13 12:49 UTC.
Position N 29°44' W 095°14'.

Length 27 m; draft 3 m.

Type: Tug. MMSI: 367443840.

Date/timePositionNaut miles runAvg speedWind from/ knotsBaromVisibWave heightAir tempDewpointWater temp
2017-Dec-11 16:26N 29°44' W 095°14'0 0.0
2017-Dec-11 15:49N 29°44' W 095°14'0 0.0
2017-Dec-11 15:14N 29°44' W 095°14'0 0.0
2017-Dec-11 14:51N 29°44' W 095°14'0 0.0
2017-Dec-11 14:27N 29°44' W 095°14'0 0.0
2017-Dec-11 14:00N 29°44' W 095°14'0 0.0
2017-Dec-11 13:30N 29°44' W 095°14'0 0.0
2017-Dec-11 13:00N 29°44' W 095°14'0 0.0
2017-Dec-11 12:30N 29°44' W 095°14'0 0.0
2017-Dec-11 12:00N 29°44' W 095°14'0 0.0
2017-Dec-11 11:30N 29°44' W 095°14'0 0.0
2017-Dec-11 11:00N 29°44' W 095°14'0 0.0
2017-Dec-11 10:28N 29°44' W 095°14'0 0.0
2017-Dec-11 10:00N 29°44' W 095°14'0 0.0
2017-Dec-11 09:30N 29°44' W 095°14'0 0.0
2017-Dec-11 08:59N 29°44' W 095°14'0 0.0
2017-Dec-11 08:30N 29°44' W 095°14'0 0.0
2017-Dec-11 08:00N 29°44' W 095°14'0 0.0
2017-Dec-11 07:30N 29°44' W 095°14'0 0.0
2017-Dec-11 07:00N 29°44' W 095°14'0 0.0
2017-Dec-11 06:30N 29°44' W 095°14'0 0.0
2017-Dec-11 06:00N 29°44' W 095°14'0 0.0
2017-Dec-11 05:30N 29°44' W 095°14'0 0.0
2017-Dec-11 05:00N 29°44' W 095°14'0 0.1
2017-Dec-11 04:30N 29°44' W 095°14'0 0.0
2017-Dec-11 04:00N 29°44' W 095°14'0 0.0
2017-Dec-11 03:30N 29°44' W 095°14'0 0.0
2017-Dec-11 03:00N 29°44' W 095°14'0 0.0
2017-Dec-11 02:29N 29°44' W 095°14'0 0.0
2017-Dec-11 01:58N 29°44' W 095°14'0 0.0
2017-Dec-11 01:30N 29°44' W 095°14'0 0.0
2017-Dec-11 01:00N 29°44' W 095°14'0 0.0
2017-Dec-11 00:30N 29°44' W 095°14'3 6.5
2017-Dec-11 00:00N 29°45' W 095°10'4 7.3
2017-Dec-10 23:28N 29°45' W 095°06'2 0.2
2017-Dec-10 14:18N 29°47' W 095°05'0 0.0
2017-Dec-10 10:54N 29°47' W 095°05'0 0.0
2017-Dec-10 10:28N 29°47' W 095°05'0 0.0
2017-Dec-10 06:43N 29°47' W 095°05'0 0.0
2017-Dec-10 06:23N 29°47' W 095°05'0 0.0
2017-Dec-10 06:00N 29°47' W 095°05'0 0.0
2017-Dec-10 00:09N 29°47' W 095°05'1 1.9
2017-Dec-09 23:52N 29°47' W 095°04'2 6.1
2017-Dec-09 23:30N 29°45' W 095°06'4 7.8
2017-Dec-09 23:00N 29°45' W 095°10'3 6.6
2017-Dec-09 22:30N 29°44' W 095°14'0 0.0
2017-Dec-09 21:58N 29°44' W 095°14'0 0.0
2017-Dec-09 21:30N 29°44' W 095°14'0 0.2
2017-Dec-09 20:39N 29°43' W 095°13'0 0.1
2017-Dec-09 20:16N 29°43' W 095°13'1 2.4
2017-Dec-09 19:59N 29°44' W 095°13'3 5.4
2017-Dec-09 19:30N 29°45' W 095°10'2 4.6
2017-Dec-09 19:00N 29°44' W 095°07'3 5.8
2017-Dec-09 18:25N 29°46' W 095°05'1 1.0
2017-Dec-09 17:28N 29°47' W 095°06'0 0.1
2017-Dec-09 15:13N 29°47' W 095°06'0 0.0
2017-Dec-09 15:00N 29°47' W 095°06'0 0.0
2017-Dec-09 14:31N 29°47' W 095°06'0 0.0
2017-Dec-09 14:00N 29°47' W 095°06'1 1.5
2017-Dec-09 13:23N 29°47' W 095°05'1 2.3
2017-Dec-09 13:00N 29°47' W 095°06'0 0.1
2017-Dec-09 12:30N 29°47' W 095°06'1 2.3
2017-Dec-09 11:54N 29°47' W 095°04'1 1.4
2017-Dec-09 11:19N 29°47' W 095°05'1 2.8
2017-Dec-09 11:00N 29°46' W 095°05'2 4.5
2017-Dec-09 10:31N 29°44' W 095°03'0 0.2
2017-Dec-09 09:54N 29°44' W 095°03'0 0.1
2017-Dec-09 09:30N 29°44' W 095°03'0 0.0
2017-Dec-09 09:00N 29°44' W 095°03'0 0.0
2017-Dec-09 08:30N 29°44' W 095°03'0 0.0
2017-Dec-09 07:59N 29°44' W 095°03'0 0.0
2017-Dec-09 07:30N 29°44' W 095°03'0 0.0
2017-Dec-09 07:00N 29°44' W 095°03'0 0.0
2017-Dec-09 06:30N 29°44' W 095°03'0 0.0
2017-Dec-09 06:00N 29°44' W 095°03'0 0.0
2017-Dec-09 05:30N 29°44' W 095°03'0 0.0
2017-Dec-09 05:00N 29°44' W 095°03'0 0.0
2017-Dec-09 04:30N 29°44' W 095°03'0 0.0
2017-Dec-09 04:00N 29°44' W 095°03'0 0.0
2017-Dec-09 03:30N 29°44' W 095°03'0 0.0
2017-Dec-09 03:00N 29°44' W 095°03'0 0.0
2017-Dec-09 02:30N 29°44' W 095°03'0 0.0
2017-Dec-09 01:55N 29°44' W 095°03'0 0.0
2017-Dec-09 01:29N 29°44' W 095°03'0 0.0
2017-Dec-09 01:00N 29°44' W 095°03'0 0.0
2017-Dec-09 00:30N 29°44' W 095°03'0 0.0
2017-Dec-09 00:00N 29°44' W 095°03'0 0.0
2017-Dec-08 23:29N 29°44' W 095°03'0 0.0
2017-Dec-08 23:00N 29°44' W 095°03'0 0.0
2017-Dec-08 22:31N 29°44' W 095°03'0 0.0
2017-Dec-08 22:00N 29°44' W 095°03'0 0.0
2017-Dec-08 21:30N 29°44' W 095°03'0 0.0
2017-Dec-08 21:00N 29°44' W 095°03'0 0.0
2017-Dec-08 20:30N 29°44' W 095°03'0 0.0
2017-Dec-08 20:00N 29°44' W 095°03'0 0.0
2017-Dec-08 19:30N 29°44' W 095°03'0 0.0
2017-Dec-08 19:00N 29°44' W 095°03'0 0.0
2017-Dec-08 18:29N 29°44' W 095°03'0 0.0
2017-Dec-08 17:42N 29°44' W 095°03'0 0.0
2017-Dec-08 17:28N 29°44' W 095°03'0 0.0
2017-Dec-08 16:41N 29°44' W 095°03'0 0.0
2017-Dec-08 15:29N 29°44' W 095°03'0 0.0
2017-Dec-08 14:55N 29°44' W 095°03'0 0.0
2017-Dec-08 14:15N 29°44' W 095°03'0 0.0
2017-Dec-08 13:34N 29°44' W 095°03'0 0.0
2017-Dec-08 13:30N 29°44' W 095°03'0 0.0
2017-Dec-08 12:57N 29°44' W 095°03'0 0.0
2017-Dec-08 12:16N 29°44' W 095°03'0 0.0
2017-Dec-08 11:58N 29°44' W 095°03'0 0.0
2017-Dec-08 11:29N 29°44' W 095°03'0 0.0
2017-Dec-08 10:51N 29°44' W 095°03'0 0.0
2017-Dec-08 10:29N 29°44' W 095°03'0 0.0
2017-Dec-08 09:58N 29°44' W 095°03'0 0.0
2017-Dec-08 09:11N 29°44' W 095°03'0 0.0
2017-Dec-08 08:48N 29°44' W 095°03'0 0.0
2017-Dec-08 08:30N 29°44' W 095°03'0 0.0
2017-Dec-08 07:53N 29°44' W 095°03'0 0.0
2017-Dec-08 07:30N 29°44' W 095°03'0 0.0
2017-Dec-08 06:59N 29°44' W 095°03'0 0.0
2017-Dec-08 05:45N 29°44' W 095°03'0 0.0
2017-Dec-08 05:15N 29°44' W 095°03'0 0.0
2017-Dec-08 03:49N 29°44' W 095°03'0 0.0
2017-Dec-08 03:30N 29°44' W 095°03'0 0.0
2017-Dec-08 03:00N 29°44' W 095°03'0 0.0
2017-Dec-08 02:30N 29°44' W 095°03'0 0.0
2017-Dec-08 01:58N 29°44' W 095°03'0 0.0
2017-Dec-08 01:29N 29°44' W 095°03'0 0.0
2017-Dec-08 01:00N 29°44' W 095°03'0 0.0
2017-Dec-08 00:28N 29°44' W 095°03'0 0.0
2017-Dec-07 23:49N 29°44' W 095°03'0 0.0
2017-Dec-07 21:01N 29°44' W 095°03'0 0.1
2017-Dec-07 20:57N 29°44' W 095°03'0 0.0
2017-Dec-07 16:52N 29°44' W 095°03'0 0.0
2017-Dec-07 16:29N 29°44' W 095°03'0 0.0
2017-Dec-07 16:00N 29°44' W 095°03'0 0.0
2017-Dec-07 15:30N 29°44' W 095°03'0 0.0
2017-Dec-07 15:00N 29°44' W 095°03'0 0.0
2017-Dec-07 14:28N 29°44' W 095°03'0 0.0
2017-Dec-07 13:57N 29°44' W 095°03'0 0.0
2017-Dec-07 13:29N 29°44' W 095°03'0 0.0
2017-Dec-07 12:56N 29°44' W 095°03'0 0.0
2017-Dec-07 12:27N 29°44' W 095°03'0 0.0
2017-Dec-07 11:54N 29°44' W 095°03'0 0.0
2017-Dec-07 11:30N 29°44' W 095°03'0 0.0
2017-Dec-07 10:49N 29°44' W 095°03'0 0.0
2017-Dec-07 10:15N 29°44' W 095°03'0 0.0
2017-Dec-07 09:53N 29°44' W 095°03'0 0.0
2017-Dec-07 09:30N 29°44' W 095°03'0 0.0
2017-Dec-07 08:56N 29°44' W 095°03'0 0.6
2017-Dec-07 08:29N 29°44' W 095°03'0 0.0
2017-Dec-07 08:00N 29°44' W 095°03'0 0.0
2017-Dec-07 07:25N 29°44' W 095°03'0 0.0
2017-Dec-07 06:48N 29°44' W 095°03'0 0.0
2017-Dec-07 06:24N 29°44' W 095°03'0 0.0
2017-Dec-07 05:59N 29°44' W 095°03'0 0.1
2017-Dec-07 05:30N 29°44' W 095°03'0 0.1
2017-Dec-07 05:00N 29°44' W 095°03'0 0.0
2017-Dec-07 04:27N 29°44' W 095°03'0 0.0
2017-Dec-07 02:58N 29°44' W 095°03'0 0.0
2017-Dec-07 02:24N 29°44' W 095°03'0 0.0
2017-Dec-07 01:56N 29°44' W 095°03'0 0.0
2017-Dec-07 01:29N 29°44' W 095°03'0 0.0
2017-Dec-07 00:56N 29°44' W 095°03'0 0.0
2017-Dec-07 00:30N 29°44' W 095°03'0 0.0
2017-Dec-06 23:59N 29°44' W 095°03'0 0.0
2017-Dec-06 23:21N 29°44' W 095°03'0 0.0
2017-Dec-06 22:48N 29°44' W 095°03'0 0.0
2017-Dec-06 22:22N 29°44' W 095°03'0 0.0
2017-Dec-06 21:57N 29°44' W 095°03'0 0.0
2017-Dec-06 21:30N 29°44' W 095°03'0 0.0
2017-Dec-06 20:52N 29°44' W 095°03'  
2017-Dec-03 16:24N 29°47' W 095°04'1 1.2
2017-Dec-03 15:58N 29°47' W 095°05'1 2.3
2017-Dec-03 15:29N 29°46' W 095°05'1 1.0
2017-Dec-03 14:52N 29°46' W 095°05'1 0.2
2017-Dec-03 09:29N 29°47' W 095°05'0 0.0
2017-Dec-03 08:52N 29°47' W 095°05'0 0.0
2017-Dec-03 05:22N 29°47' W 095°05'0 0.0
2017-Dec-03 05:00N 29°47' W 095°05'0 0.0
2017-Dec-03 04:30N 29°47' W 095°05'0 0.0
2017-Dec-03 04:00N 29°47' W 095°05'0 0.0
2017-Dec-03 02:41N 29°47' W 095°05'0 0.0
2017-Dec-03 02:29N 29°47' W 095°05'0 0.0
2017-Dec-02 20:43N 29°47' W 095°05'1 3.3
2017-Dec-02 20:28N 29°47' W 095°04'1 1.3
2017-Dec-02 19:55N 29°47' W 095°04'2 4.0
2017-Dec-02 19:30N 29°45' W 095°04'3 5.3
2017-Dec-02 18:59N 29°44' W 095°01'2 4.7
2017-Dec-02 18:30N 29°42' W 094°60'3 5.2
2017-Dec-02 18:01N 29°40' W 094°58'3 5.1
2017-Dec-02 17:30N 29°37' W 094°57'3 5.2
2017-Dec-02 17:00N 29°35' W 094°56'3 5.0
2017-Dec-02 16:29N 29°33' W 094°54'2 4.9
2017-Dec-02 15:59N 29°31' W 094°53'  

Dump ship's entire track history